createdAt,value
2022-10-11T00:00:14.062Z,42.40
2022-10-11T00:01:14.120Z,47.57
2022-10-11T00:02:14.074Z,59.24
2022-10-11T00:03:14.051Z,50.86
2022-10-11T00:04:14.058Z,45.11
2022-10-11T00:05:14.030Z,51.67
2022-10-11T00:06:14.030Z,44.95
2022-10-11T00:07:14.050Z,44.81
2022-10-11T00:08:14.011Z,45.85
2022-10-11T00:09:13.993Z,50.47
2022-10-11T00:10:13.989Z,48.78
2022-10-11T00:11:13.975Z,50.71
2022-10-11T00:12:13.998Z,54.01
2022-10-11T00:13:13.966Z,53.52
2022-10-11T00:14:13.960Z,46.00
2022-10-11T00:15:13.957Z,50.78
2022-10-11T00:16:13.944Z,42.87
2022-10-11T00:17:13.983Z,51.45
2022-10-11T00:18:13.954Z,47.69
2022-10-11T00:19:13.920Z,44.35
2022-10-11T00:20:13.913Z,58.51
2022-10-11T00:21:13.904Z,53.90
2022-10-11T00:22:13.919Z,47.05
2022-10-11T00:23:13.886Z,51.81
2022-10-11T00:24:13.881Z,56.67
2022-10-11T00:25:13.877Z,45.97
2022-10-11T00:26:13.866Z,53.20
2022-10-11T00:27:13.885Z,52.98
2022-10-11T00:28:13.903Z,53.79
2022-10-11T00:29:13.847Z,53.71
2022-10-11T00:30:13.836Z,59.15
2022-10-11T00:31:13.833Z,51.55
2022-10-11T00:32:13.847Z,54.02
2022-10-11T00:33:13.810Z,57.70
2022-10-11T00:34:13.809Z,52.25
2022-10-11T00:35:13.802Z,52.01
2022-10-11T00:36:13.788Z,48.92
2022-10-11T00:37:13.805Z,45.68
2022-10-11T00:38:13.783Z,52.84
2022-10-11T00:39:14.512Z,44.46
2022-10-11T00:40:14.776Z,48.91
2022-10-11T00:41:13.753Z,54.16
2022-10-11T00:42:13.770Z,51.42
2022-10-11T00:43:13.739Z,50.60
2022-10-11T00:44:13.741Z,40.54
2022-10-11T00:45:13.732Z,41.64
2022-10-11T00:46:13.714Z,49.07
2022-10-11T00:47:13.729Z,40.15
2022-10-11T00:48:13.701Z,39.61
2022-10-11T00:49:13.697Z,39.44
2022-10-11T00:50:13.689Z,39.41
2022-10-11T00:51:13.707Z,39.60
2022-10-11T00:52:13.670Z,44.81
2022-10-11T00:53:13.664Z,39.60
2022-10-11T00:54:13.661Z,40.10
2022-10-11T00:55:13.646Z,48.60
2022-10-11T00:56:13.673Z,47.88
2022-10-11T00:57:13.631Z,51.32
2022-10-11T00:58:13.626Z,60.03
2022-10-11T00:59:13.619Z,54.12
2022-10-11T01:00:13.612Z,46.70
2022-10-11T01:01:14.715Z,51.87
2022-10-11T01:02:13.597Z,50.84
2022-10-11T01:03:13.594Z,49.19
2022-10-11T01:04:13.583Z,44.47
2022-10-11T01:05:30.181Z,54.02
2022-10-11T01:06:15.591Z,46.98
2022-10-11T01:07:13.558Z,53.83
2022-10-11T01:08:14.714Z,41.58
2022-10-11T01:09:13.559Z,39.70
2022-10-11T01:10:13.533Z,41.80
2022-10-11T01:11:13.519Z,51.76
2022-10-11T01:12:13.550Z,48.00
2022-10-11T01:13:13.513Z,53.41
2022-10-11T01:14:13.500Z,49.23
2022-10-11T01:15:13.498Z,44.32
2022-10-11T01:16:13.488Z,54.50
2022-10-11T01:17:13.516Z,52.87
2022-10-11T01:18:13.473Z,54.33
2022-10-11T01:19:13.467Z,52.36
2022-10-11T01:20:13.457Z,50.01
2022-10-11T01:21:13.451Z,51.78
2022-10-11T01:22:13.471Z,55.33
2022-10-11T01:23:13.430Z,47.07
2022-10-11T01:24:13.429Z,52.68
2022-10-11T01:25:13.421Z,51.41
2022-10-11T01:26:13.412Z,54.13
2022-10-11T01:27:13.435Z,47.14
2022-10-11T01:28:13.517Z,45.82
2022-10-11T01:29:13.392Z,50.39
2022-10-11T01:30:13.378Z,45.38
2022-10-11T01:31:13.370Z,44.58
2022-10-11T01:32:13.389Z,53.62
2022-10-11T01:33:13.357Z,50.44
2022-10-11T01:34:13.346Z,55.78
2022-10-11T01:35:13.340Z,39.02
2022-10-11T01:36:13.334Z,42.91
2022-10-11T01:37:13.352Z,51.45
2022-10-11T01:38:13.320Z,56.95
2022-10-11T01:39:13.315Z,49.61
2022-10-11T01:40:13.305Z,48.52
2022-10-11T01:41:13.300Z,52.21
2022-10-11T01:42:13.314Z,50.15
2022-10-11T01:43:13.289Z,50.09
2022-10-11T01:44:13.272Z,56.48
2022-10-11T01:45:13.262Z,56.47
2022-10-11T01:46:13.261Z,56.40
2022-10-11T01:47:13.288Z,54.54
2022-10-11T01:48:13.241Z,45.46
2022-10-11T01:49:13.249Z,44.56
2022-10-11T01:50:13.228Z,42.50
2022-10-11T01:51:13.213Z,54.29
2022-10-11T01:52:14.250Z,48.76
2022-10-11T01:53:13.217Z,42.81
2022-10-11T01:54:13.198Z,52.68
2022-10-11T01:55:13.193Z,50.02
2022-10-11T01:56:13.181Z,61.02
2022-10-11T01:57:13.205Z,49.33
2022-10-11T01:58:13.162Z,49.22
2022-10-11T01:59:13.158Z,54.65
2022-10-11T02:00:13.146Z,44.20
2022-10-11T02:01:13.177Z,41.39
2022-10-11T02:02:13.133Z,44.80
2022-10-11T02:03:13.151Z,49.57
2022-10-11T02:04:13.121Z,54.27
2022-10-11T02:05:13.106Z,51.61
2022-10-11T02:06:13.107Z,50.97
2022-10-11T02:07:13.094Z,47.37
2022-10-11T02:08:13.110Z,48.99
2022-10-11T02:09:13.079Z,45.28
2022-10-11T02:10:13.074Z,50.57
2022-10-11T02:11:13.063Z,57.65
2022-10-11T02:12:13.059Z,52.87
2022-10-11T02:13:13.078Z,53.48
2022-10-11T02:14:13.048Z,55.33
2022-10-11T02:15:13.039Z,53.70
2022-10-11T02:16:13.033Z,51.84
2022-10-11T02:17:13.023Z,49.10
2022-10-11T02:18:13.047Z,49.56
2022-10-11T02:19:13.008Z,49.81
2022-10-11T02:20:13.002Z,52.01
2022-10-11T02:21:12.992Z,51.51
2022-10-11T02:22:12.984Z,49.69
2022-10-11T02:23:13.002Z,53.80
2022-10-11T02:24:12.969Z,47.19
2022-10-11T02:25:12.962Z,48.06
2022-10-11T02:26:12.939Z,52.37
2022-10-11T02:27:13.944Z,48.87
2022-10-11T02:28:13.019Z,50.36
2022-10-11T02:29:12.930Z,57.74
2022-10-11T02:30:12.922Z,59.37
2022-10-11T02:31:12.914Z,61.53
2022-10-11T02:32:12.907Z,48.39
2022-10-11T02:33:12.931Z,51.35
2022-10-11T02:34:12.892Z,47.61
2022-10-11T02:35:12.882Z,50.80
2022-10-11T02:36:12.879Z,50.93
2022-10-11T02:37:12.871Z,58.48
2022-10-11T02:38:12.894Z,54.61
2022-10-11T02:39:12.858Z,56.73
2022-10-11T02:40:12.856Z,54.07
2022-10-11T02:41:12.840Z,51.63
2022-10-11T02:42:12.829Z,49.52
2022-10-11T02:43:13.865Z,53.33
2022-10-11T02:44:12.820Z,60.99
2022-10-11T02:45:12.817Z,53.75
2022-10-11T02:46:12.807Z,45.11
2022-10-11T02:47:12.802Z,43.15
2022-10-11T02:48:12.793Z,57.10
2022-10-11T02:49:12.806Z,51.81
2022-10-11T02:50:12.773Z,55.16
2022-10-11T02:51:12.774Z,51.00
2022-10-11T02:52:12.758Z,53.80
2022-10-11T02:53:12.771Z,43.02
2022-10-11T02:54:12.744Z,47.87
2022-10-11T02:55:12.737Z,54.37
2022-10-11T02:56:12.730Z,54.92
2022-10-11T02:57:12.721Z,55.00
2022-10-11T02:58:12.748Z,54.95
2022-10-11T02:59:12.706Z,54.86
2022-10-11T03:00:12.701Z,51.85
2022-10-11T03:01:12.710Z,51.11
2022-10-11T03:02:12.688Z,48.90
2022-10-11T03:03:12.704Z,52.75
2022-10-11T03:04:12.667Z,54.48
2022-10-11T03:05:12.668Z,58.56
2022-10-11T03:06:12.663Z,53.28
2022-10-11T03:07:12.647Z,52.44
2022-10-11T03:08:12.666Z,46.25
2022-10-11T03:09:12.632Z,54.28
2022-10-11T03:10:12.620Z,46.90
2022-10-11T03:11:12.616Z,51.00
2022-10-11T03:12:12.608Z,54.76
2022-10-11T03:13:17.287Z,55.48
2022-10-11T03:14:14.617Z,55.95
2022-10-11T03:15:12.586Z,54.74
2022-10-11T03:16:12.892Z,55.53
2022-10-11T03:17:35.195Z,57.98
2022-10-11T03:18:14.589Z,61.33
2022-10-11T03:19:16.907Z,56.82
2022-10-11T03:20:14.545Z,55.99
2022-10-11T03:21:12.542Z,54.47
2022-10-11T03:22:12.538Z,53.60
2022-10-11T03:23:12.548Z,50.74
2022-10-11T03:24:12.515Z,51.52
2022-10-11T03:25:12.508Z,56.86
2022-10-11T03:26:12.502Z,51.24
2022-10-11T03:27:12.498Z,53.50
2022-10-11T03:28:12.545Z,56.94
2022-10-11T03:29:12.477Z,61.87
2022-10-11T03:30:16.133Z,50.36
2022-10-11T03:31:14.457Z,59.88
2022-10-11T03:32:12.454Z,54.73
2022-10-11T03:33:12.470Z,59.11
2022-10-11T03:34:12.438Z,56.85
2022-10-11T03:35:12.437Z,58.60
2022-10-11T03:36:12.429Z,56.96
2022-10-11T03:37:12.421Z,59.17
2022-10-11T03:38:13.094Z,59.51
2022-10-11T03:39:13.391Z,61.99
2022-10-11T03:40:12.389Z,60.46
2022-10-11T03:41:12.392Z,55.08
2022-10-11T03:42:12.375Z,56.81
2022-10-11T03:43:12.389Z,50.38
2022-10-11T03:44:12.355Z,54.42
2022-10-11T03:45:12.348Z,56.22
2022-10-11T03:46:12.341Z,54.53
2022-10-11T03:47:12.329Z,57.07
2022-10-11T03:48:12.349Z,59.73
2022-10-11T03:49:12.318Z,56.09
2022-10-11T03:50:12.307Z,56.85
2022-10-11T03:51:12.296Z,56.68
2022-10-11T03:52:12.298Z,55.91
2022-10-11T03:53:12.309Z,53.66
2022-10-11T03:54:12.279Z,57.61
2022-10-11T03:55:12.272Z,57.07
2022-10-11T03:56:12.488Z,56.45
2022-10-11T03:57:12.253Z,51.68
2022-10-11T03:58:12.274Z,51.85
2022-10-11T03:59:12.244Z,53.13
2022-10-11T04:00:12.228Z,56.82
2022-10-11T04:01:12.211Z,59.98
2022-10-11T04:02:13.312Z,59.43
2022-10-11T04:03:12.232Z,58.64
2022-10-11T04:04:25.683Z,58.58
2022-10-11T04:05:12.196Z,58.41
2022-10-11T04:06:12.199Z,58.83
2022-10-11T04:07:12.196Z,57.90
2022-10-11T04:08:12.564Z,62.37
2022-10-11T04:09:13.184Z,58.03
2022-10-11T04:10:12.155Z,50.93
2022-10-11T04:11:12.152Z,58.78
2022-10-11T04:12:12.151Z,55.42
2022-10-11T04:13:12.177Z,55.39
2022-10-11T04:14:12.142Z,54.64
2022-10-11T04:15:12.122Z,53.66
2022-10-11T04:16:12.117Z,52.78
2022-10-11T04:17:12.109Z,56.28
2022-10-11T04:18:12.135Z,52.79
2022-10-11T04:19:12.106Z,58.26
2022-10-11T04:20:12.091Z,57.84
2022-10-11T04:21:12.085Z,57.93
2022-10-11T04:22:12.078Z,57.55
2022-10-11T04:23:12.100Z,54.04
2022-10-11T04:24:12.067Z,57.14
2022-10-11T04:25:12.046Z,58.18
2022-10-11T04:26:12.043Z,57.34
2022-10-11T04:27:12.041Z,55.22
2022-10-11T04:28:12.097Z,58.23
2022-10-11T04:29:12.015Z,56.06
2022-10-11T04:30:12.013Z,59.86
2022-10-11T04:31:12.004Z,61.04
2022-10-11T04:32:12.000Z,60.29
2022-10-11T04:33:12.026Z,61.10
2022-10-11T04:34:11.979Z,60.92
2022-10-11T04:35:11.975Z,59.57
2022-10-11T04:36:11.978Z,58.37
2022-10-11T04:37:11.951Z,57.63
2022-10-11T04:38:11.979Z,57.92
2022-10-11T04:39:11.939Z,58.36
2022-10-11T04:40:11.929Z,58.19
2022-10-11T04:41:11.951Z,56.98
2022-10-11T04:42:11.923Z,59.49
2022-10-11T04:43:11.938Z,58.29
2022-10-11T04:44:11.904Z,58.22
2022-10-11T04:45:11.896Z,56.24
2022-10-11T04:46:12.061Z,57.01
2022-10-11T04:47:11.876Z,57.61
2022-10-11T04:48:11.913Z,58.14
2022-10-11T04:49:11.866Z,56.84
2022-10-11T04:50:11.861Z,58.54
2022-10-11T04:51:11.847Z,58.71
2022-10-11T04:52:11.844Z,57.60
2022-10-11T04:53:11.861Z,60.84
2022-10-11T04:54:11.823Z,57.20
2022-10-11T04:55:11.851Z,58.31
2022-10-11T04:56:11.814Z,58.59
2022-10-11T04:57:11.797Z,59.94
2022-10-11T04:58:11.812Z,57.36
2022-10-11T04:59:11.843Z,56.35
2022-10-11T05:00:11.781Z,59.26
2022-10-11T05:01:11.768Z,59.85
2022-10-11T05:02:11.783Z,56.95
2022-10-11T05:03:11.796Z,58.63
2022-10-11T05:04:11.741Z,56.86
2022-10-11T05:05:11.733Z,58.53
2022-10-11T05:06:12.263Z,56.25
2022-10-11T05:07:11.722Z,56.00
2022-10-11T05:08:11.729Z,58.81
2022-10-11T05:09:12.704Z,56.90
2022-10-11T05:10:11.703Z,58.09
2022-10-11T05:11:11.691Z,57.37
2022-10-11T05:12:11.680Z,57.24
2022-10-11T05:13:11.672Z,58.79
2022-10-11T05:14:11.694Z,59.22
2022-10-11T05:15:11.655Z,56.24
2022-10-11T05:16:12.108Z,57.65
2022-10-11T05:17:11.643Z,57.58
2022-10-11T05:18:11.637Z,59.76
2022-10-11T05:19:11.654Z,60.66
2022-10-11T05:20:11.616Z,59.32
2022-10-11T05:21:11.615Z,59.19
2022-10-11T05:22:11.606Z,59.41
2022-10-11T05:23:11.600Z,59.24
2022-10-11T05:24:11.628Z,60.27
2022-10-11T05:25:11.574Z,60.27
2022-10-11T05:26:11.574Z,55.14
2022-10-11T05:27:11.562Z,55.77
2022-10-11T05:28:11.619Z,55.67
2022-10-11T05:29:11.586Z,54.57
2022-10-11T05:30:11.547Z,56.63
2022-10-11T05:31:11.534Z,55.92
2022-10-11T05:32:11.527Z,57.94
2022-10-11T05:33:11.519Z,55.86
2022-10-11T05:34:11.540Z,58.99
2022-10-11T05:35:11.498Z,54.79
2022-10-11T05:36:11.492Z,53.77
2022-10-11T05:37:11.481Z,55.95
2022-10-11T05:38:11.480Z,56.15
2022-10-11T05:39:11.532Z,58.49
2022-10-11T05:40:11.458Z,55.71
2022-10-11T05:41:11.455Z,56.69
2022-10-11T05:42:11.454Z,56.50
2022-10-11T05:43:11.441Z,56.48
2022-10-11T05:44:11.477Z,59.38
2022-10-11T05:45:11.437Z,61.90
2022-10-11T05:46:11.420Z,57.83
2022-10-11T05:47:11.408Z,59.75
2022-10-11T05:48:11.406Z,59.23
2022-10-11T05:49:11.417Z,59.50
2022-10-11T05:50:11.384Z,59.81
2022-10-11T05:51:11.380Z,59.80
2022-10-11T05:52:11.374Z,58.50
2022-10-11T05:53:11.365Z,61.71
2022-10-11T05:54:11.382Z,58.61
2022-10-11T05:55:11.353Z,58.20
2022-10-11T05:56:11.352Z,58.22
2022-10-11T05:57:11.329Z,56.66
2022-10-11T05:58:11.322Z,56.17
2022-10-11T05:59:11.340Z,56.93
2022-10-11T06:00:11.315Z,57.81
2022-10-11T06:01:11.399Z,56.66
2022-10-11T06:02:11.293Z,51.62
2022-10-11T06:03:11.292Z,54.93
2022-10-11T06:04:11.311Z,57.51
2022-10-11T06:05:11.274Z,57.41
2022-10-11T06:06:11.271Z,57.46
2022-10-11T06:07:11.261Z,58.86
2022-10-11T06:08:11.249Z,55.01
2022-10-11T06:09:11.271Z,57.31
2022-10-11T06:10:11.281Z,56.36
2022-10-11T06:11:12.154Z,57.08
2022-10-11T06:12:12.216Z,57.83
2022-10-11T06:13:12.212Z,57.05
2022-10-11T06:14:11.297Z,57.35
2022-10-11T06:15:11.205Z,56.68
2022-10-11T06:16:11.191Z,58.41
2022-10-11T06:17:11.190Z,57.30
2022-10-11T06:18:11.177Z,59.88
2022-10-11T06:19:11.197Z,57.49
2022-10-11T06:20:11.166Z,60.01
2022-10-11T06:21:11.150Z,60.95
2022-10-11T06:22:11.176Z,58.94
2022-10-11T06:23:11.131Z,59.94
2022-10-11T06:24:11.162Z,60.93
2022-10-11T06:25:11.116Z,61.89
2022-10-11T06:26:11.123Z,59.79
2022-10-11T06:27:11.112Z,60.92
2022-10-11T06:28:11.163Z,60.19
2022-10-11T06:29:11.123Z,60.49
2022-10-11T06:30:11.079Z,58.11
2022-10-11T06:31:11.083Z,57.00
2022-10-11T06:32:11.065Z,61.47
2022-10-11T06:33:11.060Z,56.54
2022-10-11T06:34:11.075Z,56.70
2022-10-11T06:35:11.045Z,57.91
2022-10-11T06:36:11.039Z,57.17
2022-10-11T06:37:11.031Z,59.78
2022-10-11T06:38:11.049Z,57.95
2022-10-11T06:39:11.046Z,58.12
2022-10-11T06:40:11.012Z,56.78
2022-10-11T06:41:11.003Z,55.87
2022-10-11T06:42:10.988Z,57.86
2022-10-11T06:43:10.992Z,58.56
2022-10-11T06:44:14.135Z,58.88
2022-10-11T06:45:11.974Z,57.38
2022-10-11T06:46:10.968Z,56.54
2022-10-11T06:47:10.956Z,57.48
2022-10-11T06:48:10.951Z,62.53
2022-10-11T06:49:10.960Z,58.11
2022-10-11T06:50:10.931Z,57.20
2022-10-11T06:51:10.931Z,59.34
2022-10-11T06:52:10.951Z,57.82
2022-10-11T06:53:10.908Z,58.67
2022-10-11T06:54:10.926Z,55.53
2022-10-11T06:55:10.906Z,53.94
2022-10-11T06:56:10.888Z,57.31
2022-10-11T06:57:10.877Z,57.16
2022-10-11T06:58:10.866Z,56.19
2022-10-11T06:59:10.893Z,57.30
2022-10-11T07:00:12.831Z,56.48
2022-10-11T07:01:11.891Z,57.82
2022-10-11T07:02:10.838Z,57.79
2022-10-11T07:03:10.829Z,54.04
2022-10-11T07:04:10.854Z,52.88
2022-10-11T07:05:10.824Z,58.38
2022-10-11T07:06:11.146Z,57.68
2022-10-11T07:07:10.815Z,58.17
2022-10-11T07:08:10.833Z,57.91
2022-10-11T07:09:10.816Z,58.61
2022-10-11T07:10:10.775Z,58.86
2022-10-11T07:11:10.777Z,57.62
2022-10-11T07:12:10.768Z,55.60
2022-10-11T07:13:16.244Z,54.07
2022-10-11T07:14:12.778Z,57.87
2022-10-11T07:15:10.738Z,59.14
2022-10-11T07:16:10.734Z,57.53
2022-10-11T07:17:10.734Z,53.90
2022-10-11T07:18:10.719Z,57.07
2022-10-11T07:19:10.746Z,56.24
2022-10-11T07:20:10.710Z,56.29
2022-10-11T07:21:10.696Z,58.76
2022-10-11T07:22:10.693Z,54.32
2022-10-11T07:23:10.696Z,57.24
2022-10-11T07:24:10.702Z,59.44
2022-10-11T07:25:10.697Z,58.18
2022-10-11T07:26:10.666Z,57.79
2022-10-11T07:27:10.659Z,56.17
2022-10-11T07:28:10.666Z,59.19
2022-10-11T07:29:10.633Z,59.78
2022-10-11T07:30:10.658Z,56.30
2022-10-11T07:31:10.630Z,57.99
2022-10-11T07:32:10.635Z,56.61
2022-10-11T07:33:10.593Z,58.21
2022-10-11T07:34:10.591Z,61.38
2022-10-11T07:35:10.604Z,56.92
2022-10-11T07:36:11.574Z,57.92
2022-10-11T07:37:10.563Z,55.91
2022-10-11T07:38:10.561Z,55.54
2022-10-11T07:39:10.589Z,56.44
2022-10-11T07:40:10.540Z,58.83
2022-10-11T07:41:10.541Z,58.80
2022-10-11T07:42:10.539Z,55.10
2022-10-11T07:43:10.524Z,54.06
2022-10-11T07:44:10.540Z,55.77
2022-10-11T07:45:10.499Z,56.18
2022-10-11T07:46:10.904Z,54.70
2022-10-11T07:47:11.509Z,51.78
2022-10-11T07:48:11.488Z,54.73
2022-10-11T07:49:10.497Z,57.56
2022-10-11T07:50:10.458Z,57.74
2022-10-11T07:51:10.456Z,59.07
2022-10-11T07:52:10.442Z,51.89
2022-10-11T07:53:10.436Z,58.36
2022-10-11T07:54:10.452Z,57.56
2022-10-11T07:55:10.419Z,58.02
2022-10-11T07:56:10.426Z,55.21
2022-10-11T07:57:10.403Z,58.90
2022-10-11T07:58:10.395Z,58.88
2022-10-11T07:59:10.407Z,56.67
2022-10-11T08:00:10.380Z,52.21
2022-10-11T08:01:10.439Z,54.66
2022-10-11T08:02:10.358Z,55.00
2022-10-11T08:03:10.351Z,57.80
2022-10-11T08:04:10.374Z,55.47
2022-10-11T08:05:10.340Z,54.65
2022-10-11T08:06:10.626Z,56.22
2022-10-11T08:07:10.321Z,57.56
2022-10-11T08:08:10.325Z,53.32
2022-10-11T08:09:10.332Z,54.75
2022-10-11T08:10:10.318Z,55.44
2022-10-11T08:11:10.292Z,55.97
2022-10-11T08:12:10.284Z,52.68
2022-10-11T08:13:10.277Z,55.34
2022-10-11T08:14:10.454Z,52.02
2022-10-11T08:15:10.267Z,58.58
2022-10-11T08:16:10.254Z,56.98
2022-10-11T08:17:10.248Z,46.49
2022-10-11T08:18:10.258Z,56.75
2022-10-11T08:19:10.259Z,56.46
2022-10-11T08:20:10.230Z,56.36
2022-10-11T08:21:10.221Z,53.49
2022-10-11T08:22:10.213Z,56.40
2022-10-11T08:23:10.201Z,55.89
2022-10-11T08:24:10.227Z,55.76
2022-10-11T08:25:10.192Z,56.97
2022-10-11T08:26:10.184Z,55.30
2022-10-11T08:27:10.181Z,56.52
2022-10-11T08:28:10.256Z,57.69
2022-10-11T08:29:10.185Z,56.81
2022-10-11T08:30:10.159Z,57.22
2022-10-11T08:31:10.143Z,54.41
2022-10-11T08:32:10.137Z,57.31
2022-10-11T08:33:10.135Z,57.05
2022-10-11T08:34:10.159Z,56.00
2022-10-11T08:35:10.113Z,57.97
2022-10-11T08:36:10.779Z,53.39
2022-10-11T08:37:10.096Z,56.58
2022-10-11T08:38:10.092Z,59.72
2022-10-11T08:39:10.109Z,54.84
2022-10-11T08:40:10.078Z,56.51
2022-10-11T08:41:10.061Z,56.33
2022-10-11T08:42:10.061Z,61.98
2022-10-11T08:43:10.056Z,58.81
2022-10-11T08:44:10.068Z,58.76
2022-10-11T08:45:11.819Z,59.15
2022-10-11T08:46:11.034Z,58.64
2022-10-11T08:47:10.024Z,57.57
2022-10-11T08:48:10.013Z,54.58
2022-10-11T08:49:10.042Z,54.13
2022-10-11T08:50:10.007Z,56.73
2022-10-11T08:51:09.997Z,54.94
2022-10-11T08:52:09.981Z,54.38
2022-10-11T08:53:09.974Z,54.44
2022-10-11T08:54:10.003Z,54.71
2022-10-11T08:55:10.752Z,56.14
2022-10-11T08:56:09.953Z,56.56
2022-10-11T08:57:09.939Z,59.42
2022-10-11T08:58:09.941Z,52.92
2022-10-11T08:59:09.952Z,57.77
2022-10-11T09:00:09.935Z,57.19
2022-10-11T09:01:09.940Z,60.81
2022-10-11T09:02:09.903Z,56.45
2022-10-11T09:03:10.145Z,60.85
2022-10-11T09:04:09.913Z,58.97
2022-10-11T09:05:09.892Z,55.93
2022-10-11T09:06:10.069Z,57.82
2022-10-11T09:07:10.080Z,57.25
2022-10-11T09:08:09.866Z,58.81
2022-10-11T09:09:09.888Z,53.70
2022-10-11T09:10:09.836Z,54.14
2022-10-11T09:11:09.870Z,56.39
2022-10-11T09:12:09.823Z,57.22
2022-10-11T09:13:09.817Z,52.15
2022-10-11T09:14:09.838Z,54.01
2022-10-11T09:15:09.795Z,56.87
2022-10-11T09:16:09.828Z,58.70
2022-10-11T09:17:09.784Z,55.28
2022-10-11T09:18:09.803Z,56.77
2022-10-11T09:19:09.793Z,58.03
2022-10-11T09:20:09.759Z,55.30
2022-10-11T09:21:09.750Z,54.95
2022-10-11T09:22:09.746Z,63.04
2022-10-11T09:23:09.732Z,55.79
2022-10-11T09:24:09.792Z,54.81
2022-10-11T09:25:09.729Z,59.68
2022-10-11T09:26:09.880Z,57.26
2022-10-11T09:27:09.708Z,57.73
2022-10-11T09:28:09.757Z,56.60
2022-10-11T09:29:09.757Z,58.25
2022-10-11T09:30:09.679Z,58.64
2022-10-11T09:31:09.673Z,55.92
2022-10-11T09:32:09.692Z,56.59
2022-10-11T09:33:09.660Z,57.56
2022-10-11T09:34:09.705Z,58.29
2022-10-11T09:35:09.646Z,55.46
2022-10-11T09:36:09.671Z,56.24
2022-10-11T09:37:09.637Z,61.29
2022-10-11T09:38:09.621Z,58.50
2022-10-11T09:39:09.641Z,56.60
2022-10-11T09:40:09.604Z,61.69
2022-10-11T09:41:09.612Z,56.19
2022-10-11T09:42:09.608Z,55.76
2022-10-11T09:43:09.592Z,62.74
2022-10-11T09:44:09.609Z,55.93
2022-10-11T09:45:09.568Z,61.13
2022-10-11T09:46:09.566Z,58.26
2022-10-11T09:47:09.560Z,63.54
2022-10-11T09:48:09.549Z,55.49
2022-10-11T09:49:09.549Z,53.47
2022-10-11T09:50:09.557Z,56.50
2022-10-11T09:51:09.520Z,56.26
2022-10-11T09:52:09.513Z,56.95
2022-10-11T09:53:09.505Z,58.39
2022-10-11T09:54:09.506Z,57.01
2022-10-11T09:55:09.539Z,55.64
2022-10-11T09:56:09.820Z,62.61
2022-10-11T09:57:09.544Z,52.14
2022-10-11T09:58:09.468Z,53.16
2022-10-11T09:59:09.471Z,60.86
2022-10-11T10:00:09.478Z,58.76
2022-10-11T10:01:09.444Z,58.28
2022-10-11T10:02:09.496Z,53.84
2022-10-11T10:03:09.434Z,61.55
2022-10-11T10:04:09.420Z,58.81
2022-10-11T10:05:41.347Z,59.20
2022-10-11T10:06:09.562Z,57.62
2022-10-11T10:07:09.386Z,53.77
2022-10-11T10:08:09.388Z,55.67
2022-10-11T10:09:09.380Z,58.28
2022-10-11T10:10:09.399Z,58.47
2022-10-11T10:11:09.367Z,55.26
2022-10-11T10:12:09.354Z,56.21
2022-10-11T10:13:09.351Z,56.15
2022-10-11T10:14:09.338Z,55.30
2022-10-11T10:15:09.356Z,56.11
2022-10-11T10:16:09.496Z,51.42
2022-10-11T10:17:09.312Z,51.14
2022-10-11T10:18:09.308Z,57.93
2022-10-11T10:19:09.304Z,58.97
2022-10-11T10:20:09.328Z,61.16
2022-10-11T10:21:09.287Z,56.50
2022-10-11T10:22:09.266Z,57.69
2022-10-11T10:23:10.274Z,56.52
2022-10-11T10:24:09.260Z,57.81
2022-10-11T10:25:09.287Z,56.83
2022-10-11T10:26:09.427Z,56.64
2022-10-11T10:27:09.234Z,56.69
2022-10-11T10:28:09.293Z,56.70
2022-10-11T10:29:09.228Z,56.35
2022-10-11T10:30:09.218Z,54.58
2022-10-11T10:31:09.230Z,54.60
2022-10-11T10:32:14.426Z,58.76
2022-10-11T10:33:11.189Z,58.27
2022-10-11T10:34:09.181Z,52.85
2022-10-11T10:35:09.174Z,51.08
2022-10-11T10:36:09.601Z,56.60
2022-10-11T10:37:09.158Z,57.25
2022-10-11T10:38:09.150Z,55.38
2022-10-11T10:39:09.147Z,57.16
2022-10-11T10:40:09.174Z,53.23
2022-10-11T10:41:09.163Z,62.19
2022-10-11T10:42:09.128Z,60.00
2022-10-11T10:43:09.111Z,57.76
2022-10-11T10:44:09.099Z,55.35
2022-10-11T10:45:12.560Z,57.02
2022-10-11T10:46:10.173Z,53.47
2022-10-11T10:47:09.088Z,57.05
2022-10-11T10:48:09.073Z,59.96
2022-10-11T10:49:34.836Z,54.98
2022-10-11T10:50:11.050Z,57.78
2022-10-11T10:51:10.578Z,57.98
2022-10-11T10:52:10.036Z,57.63
2022-10-11T10:53:09.061Z,57.35
2022-10-11T10:54:09.025Z,56.15
2022-10-11T10:55:09.013Z,58.67
2022-10-11T10:56:09.392Z,56.02
2022-10-11T10:57:08.997Z,58.11
2022-10-11T10:58:08.985Z,57.11
2022-10-11T10:59:09.018Z,55.70
2022-10-11T11:00:08.984Z,57.83
2022-10-11T11:01:09.007Z,56.58
2022-10-11T11:02:28.069Z,55.90
2022-10-11T11:03:10.946Z,53.36
2022-10-11T11:04:08.938Z,56.43
2022-10-11T11:05:08.934Z,57.43
2022-10-11T11:06:09.289Z,59.07
2022-10-11T11:07:08.921Z,55.71
2022-10-11T11:08:08.907Z,56.95
2022-10-11T11:09:08.900Z,57.51
2022-10-11T11:10:08.893Z,59.27
2022-10-11T11:11:08.923Z,58.04
2022-10-11T11:12:08.882Z,57.61
2022-10-11T11:13:08.875Z,53.63
2022-10-11T11:14:08.864Z,59.44
2022-10-11T11:15:08.868Z,58.59
2022-10-11T11:16:08.877Z,58.01
2022-10-11T11:17:08.839Z,55.82
2022-10-11T11:18:08.840Z,57.91
2022-10-11T11:19:08.831Z,57.33
2022-10-11T11:20:08.813Z,58.52
2022-10-11T11:21:08.829Z,57.65
2022-10-11T11:22:08.826Z,58.03
2022-10-11T11:23:08.795Z,58.44
2022-10-11T11:24:08.806Z,58.17
2022-10-11T11:25:08.772Z,58.28
2022-10-11T11:26:09.037Z,58.04
2022-10-11T11:27:09.790Z,56.28
2022-10-11T11:28:08.757Z,52.56
2022-10-11T11:29:08.744Z,57.60
2022-10-11T11:30:08.733Z,61.08
2022-10-11T11:31:09.047Z,57.61
2022-10-11T11:32:08.747Z,58.05
2022-10-11T11:33:08.712Z,57.67
2022-10-11T11:34:08.705Z,51.22
2022-10-11T11:35:08.703Z,57.22
2022-10-11T11:36:08.882Z,60.06
2022-10-11T11:37:08.709Z,56.93
2022-10-11T11:38:08.676Z,58.16
2022-10-11T11:39:08.708Z,58.03
2022-10-11T11:40:08.655Z,57.93
2022-10-11T11:41:08.942Z,56.30
2022-10-11T11:42:08.672Z,59.35
2022-10-11T11:43:08.632Z,58.76
2022-10-11T11:44:08.627Z,61.59
2022-10-11T11:45:08.615Z,55.65
2022-10-11T11:46:08.611Z,57.96
2022-10-11T11:47:08.637Z,55.95
2022-10-11T11:48:08.598Z,57.13
2022-10-11T11:49:12.783Z,56.25
2022-10-11T11:50:09.578Z,57.83
2022-10-11T11:51:08.741Z,56.73
2022-10-11T11:52:08.577Z,57.17
2022-10-11T11:53:08.590Z,52.16
2022-10-11T11:54:08.552Z,58.49
2022-10-11T11:55:08.557Z,57.44
2022-10-11T11:56:08.566Z,56.57
2022-10-11T11:57:08.547Z,56.54
2022-10-11T11:58:08.548Z,54.59
2022-10-11T11:59:08.512Z,57.08
2022-10-11T12:00:08.500Z,57.35
2022-10-11T12:01:08.908Z,56.17
2022-10-11T12:02:08.544Z,57.60
2022-10-11T12:03:08.504Z,56.22
2022-10-11T12:04:08.470Z,56.73
2022-10-11T12:05:08.461Z,56.09
2022-10-11T12:06:08.452Z,58.73
2022-10-11T12:07:16.305Z,57.92
2022-10-11T12:08:10.478Z,59.08
2022-10-11T12:09:08.456Z,54.44
2022-10-11T12:10:08.442Z,56.56
2022-10-11T12:11:08.564Z,56.18
2022-10-11T12:12:08.408Z,58.53
2022-10-11T12:13:08.423Z,57.79
2022-10-11T12:14:08.410Z,58.20
2022-10-11T12:15:08.397Z,55.02
2022-10-11T12:16:08.384Z,55.82
2022-10-11T12:17:08.380Z,57.83
2022-10-11T12:18:08.404Z,55.63
2022-10-11T12:19:08.356Z,58.42
2022-10-11T12:20:08.353Z,59.64
2022-10-11T12:21:08.787Z,56.81
2022-10-11T12:22:08.334Z,57.61
2022-10-11T12:23:08.406Z,54.61
2022-10-11T12:24:08.330Z,55.71
2022-10-11T12:25:08.312Z,61.65
2022-10-11T12:26:08.298Z,56.22
2022-10-11T12:27:08.296Z,59.81
2022-10-11T12:28:08.355Z,57.53
2022-10-11T12:29:08.284Z,56.94
2022-10-11T12:30:08.272Z,62.22
2022-10-11T12:31:08.586Z,58.67
2022-10-11T12:32:08.261Z,56.35
2022-10-11T12:33:08.276Z,57.64
2022-10-11T12:34:08.243Z,58.43
2022-10-11T12:35:08.230Z,58.64
2022-10-11T12:36:08.577Z,58.19
2022-10-11T12:37:08.218Z,57.41
2022-10-11T12:38:08.237Z,57.55
2022-10-11T12:39:08.203Z,58.67
2022-10-11T12:40:08.202Z,58.17
2022-10-11T12:41:08.184Z,58.52
2022-10-11T12:42:08.176Z,58.41
2022-10-11T12:43:08.195Z,58.93
2022-10-11T12:44:08.159Z,58.33
2022-10-11T12:45:08.151Z,57.25
2022-10-11T12:46:08.497Z,57.94
2022-10-11T12:47:08.147Z,56.74
2022-10-11T12:48:08.135Z,57.49
2022-10-11T12:49:08.153Z,57.36
2022-10-11T12:50:08.125Z,57.81
2022-10-11T12:51:08.111Z,56.46
2022-10-11T12:52:08.100Z,60.15